sensor_id;sensor_type;location;lat;lon;timestamp;P1;durP1;ratioP1;P2;durP2;ratioP2
27666;SDS011;15074;50.940;5.282;2023-12-20T01:26:23;9.82;;;2.67;;
27666;SDS011;15074;50.940;5.282;2023-12-20T01:28:49;14.18;;;3.70;;
27666;SDS011;15074;50.940;5.282;2023-12-20T01:31:14;16.58;;;2.97;;
27666;SDS011;15074;50.940;5.282;2023-12-20T01:33:40;17.67;;;3.58;;
27666;SDS011;15074;50.940;5.282;2023-12-20T01:36:05;13.38;;;3.08;;
27666;SDS011;15074;50.940;5.282;2023-12-20T01:38:31;8.27;;;2.72;;
27666;SDS011;15074;50.940;5.282;2023-12-20T01:40:57;15.27;;;3.45;;
27666;SDS011;15074;50.940;5.282;2023-12-20T01:43:23;13.52;;;3.65;;
27666;SDS011;15074;50.940;5.282;2023-12-20T01:45:48;8.27;;;3.30;;
27666;SDS011;15074;50.940;5.282;2023-12-20T01:48:14;14.35;;;3.40;;
27666;SDS011;15074;50.940;5.282;2023-12-20T01:50:41;9.52;;;3.35;;
27666;SDS011;15074;50.940;5.282;2023-12-20T01:53:08;12.00;;;3.15;;
27666;SDS011;15074;50.940;5.282;2023-12-20T01:55:38;11.05;;;3.10;;
27666;SDS011;15074;50.940;5.282;2023-12-20T01:58:05;11.48;;;2.75;;
27666;SDS011;15074;50.940;5.282;2023-12-20T02:00:34;14.13;;;2.90;;
27666;SDS011;15074;50.940;5.282;2023-12-20T02:03:01;11.63;;;3.10;;
27666;SDS011;15074;50.940;5.282;2023-12-20T02:05:28;9.90;;;2.95;;
27666;SDS011;15074;50.940;5.282;2023-12-20T02:07:54;14.07;;;3.70;;
27666;SDS011;15074;50.940;5.282;2023-12-20T02:10:20;15.60;;;3.25;;
27666;SDS011;15074;50.940;5.282;2023-12-20T02:12:46;18.30;;;4.45;;
27666;SDS011;15074;50.940;5.282;2023-12-20T02:15:11;7.13;;;3.65;;
27666;SDS011;15074;50.940;5.282;2023-12-20T02:17:38;16.60;;;4.68;;
27666;SDS011;15074;50.940;5.282;2023-12-20T02:20:04;13.90;;;3.28;;
27666;SDS011;15074;50.940;5.282;2023-12-20T02:22:31;11.82;;;3.95;;
27666;SDS011;15074;50.940;5.282;2023-12-20T02:24:56;12.35;;;4.43;;
27666;SDS011;15074;50.940;5.282;2023-12-20T02:27:22;10.38;;;3.55;;
27666;SDS011;15074;50.940;5.282;2023-12-20T02:29:48;13.27;;;3.95;;
27666;SDS011;15074;50.940;5.282;2023-12-20T02:32:15;11.15;;;3.17;;
27666;SDS011;15074;50.940;5.282;2023-12-20T02:34:45;18.17;;;3.90;;
27666;SDS011;15074;50.940;5.282;2023-12-20T02:37:14;8.98;;;2.92;;
27666;SDS011;15074;50.940;5.282;2023-12-20T02:39:40;13.18;;;4.13;;
27666;SDS011;15074;50.940;5.282;2023-12-20T02:42:06;10.52;;;3.22;;
27666;SDS011;15074;50.940;5.282;2023-12-20T02:44:31;14.77;;;4.93;;
27666;SDS011;15074;50.940;5.282;2023-12-20T02:46:57;12.38;;;2.90;;
27666;SDS011;15074;50.940;5.282;2023-12-20T02:49:23;17.33;;;2.67;;
27666;SDS011;15074;50.940;5.282;2023-12-20T02:51:48;18.08;;;3.30;;
27666;SDS011;15074;50.940;5.282;2023-12-20T02:54:14;19.45;;;3.38;;
27666;SDS011;15074;50.940;5.282;2023-12-20T02:56:40;7.75;;;3.00;;
27666;SDS011;15074;50.940;5.282;2023-12-20T02:59:05;11.02;;;2.90;;
27666;SDS011;15074;50.940;5.282;2023-12-20T03:01:33;9.63;;;3.20;;
27666;SDS011;15074;50.940;5.282;2023-12-20T03:03:59;10.35;;;3.15;;
27666;SDS011;15074;50.940;5.282;2023-12-20T03:06:25;11.48;;;2.90;;
27666;SDS011;15074;50.940;5.282;2023-12-20T03:08:51;9.18;;;3.45;;
27666;SDS011;15074;50.940;5.282;2023-12-20T03:11:17;9.50;;;3.60;;
27666;SDS011;15074;50.940;5.282;2023-12-20T03:13:42;19.50;;;2.90;;
27666;SDS011;15074;50.940;5.282;2023-12-20T03:16:12;6.07;;;2.50;;
27666;SDS011;15074;50.940;5.282;2023-12-20T03:18:38;10.57;;;3.40;;
27666;SDS011;15074;50.940;5.282;2023-12-20T03:21:05;7.60;;;2.30;;
27666;SDS011;15074;50.940;5.282;2023-12-20T03:23:31;4.22;;;2.35;;
27666;SDS011;15074;50.940;5.282;2023-12-20T03:25:59;11.55;;;2.88;;
27666;SDS011;15074;50.940;5.282;2023-12-20T03:28:26;10.55;;;2.85;;
27666;SDS011;15074;50.940;5.282;2023-12-20T03:30:52;8.80;;;2.72;;
27666;SDS011;15074;50.940;5.282;2023-12-20T03:33:18;15.20;;;3.15;;
27666;SDS011;15074;50.940;5.282;2023-12-20T03:35:43;9.27;;;2.60;;
27666;SDS011;15074;50.940;5.282;2023-12-20T03:38:09;9.10;;;3.97;;
27666;SDS011;15074;50.940;5.282;2023-12-20T03:40:35;6.65;;;3.03;;
27666;SDS011;15074;50.940;5.282;2023-12-20T03:43:01;11.43;;;3.20;;
27666;SDS011;15074;50.940;5.282;2023-12-20T03:45:26;13.23;;;3.25;;
27666;SDS011;15074;50.940;5.282;2023-12-20T03:47:52;9.63;;;3.38;;
27666;SDS011;15074;50.940;5.282;2023-12-20T03:50:20;12.60;;;3.90;;
27666;SDS011;15074;50.940;5.282;2023-12-20T03:52:49;12.18;;;4.38;;
27666;SDS011;15074;50.940;5.282;2023-12-20T03:55:15;14.52;;;3.53;;
27666;SDS011;15074;50.940;5.282;2023-12-20T03:57:40;13.10;;;3.22;;
27666;SDS011;15074;50.940;5.282;2023-12-20T04:00:07;12.40;;;3.20;;
27666;SDS011;15074;50.940;5.282;2023-12-20T04:02:45;8.45;;;2.97;;
27666;SDS011;15074;50.940;5.282;2023-12-20T04:05:10;11.57;;;3.30;;
27666;SDS011;15074;50.940;5.282;2023-12-20T04:07:36;8.40;;;2.45;;
27666;SDS011;15074;50.940;5.282;2023-12-20T04:10:02;8.02;;;2.95;;
27666;SDS011;15074;50.940;5.282;2023-12-20T04:12:32;13.52;;;3.45;;
27666;SDS011;15074;50.940;5.282;2023-12-20T04:14:57;8.18;;;2.88;;
27666;SDS011;15074;50.940;5.282;2023-12-20T04:17:23;11.23;;;2.92;;
27666;SDS011;15074;50.940;5.282;2023-12-20T04:19:49;9.48;;;3.42;;
27666;SDS011;15074;50.940;5.282;2023-12-20T04:22:15;12.48;;;3.17;;
27666;SDS011;15074;50.940;5.282;2023-12-20T04:24:42;12.85;;;3.63;;
27666;SDS011;15074;50.940;5.282;2023-12-20T04:27:08;10.38;;;2.88;;
27666;SDS011;15074;50.940;5.282;2023-12-20T04:29:34;9.25;;;3.03;;
27666;SDS011;15074;50.940;5.282;2023-12-20T04:31:59;14.00;;;3.50;;
27666;SDS011;15074;50.940;5.282;2023-12-20T04:34:25;13.63;;;3.50;;
27666;SDS011;15074;50.940;5.282;2023-12-20T04:36:51;9.32;;;3.00;;
27666;SDS011;15074;50.940;5.282;2023-12-20T04:39:17;13.63;;;3.75;;
27666;SDS011;15074;50.940;5.282;2023-12-20T04:41:42;10.63;;;3.22;;
27666;SDS011;15074;50.940;5.282;2023-12-20T04:44:08;18.00;;;3.38;;
27666;SDS011;15074;50.940;5.282;2023-12-20T04:46:34;10.30;;;4.03;;
27666;SDS011;15074;50.940;5.282;2023-12-20T04:48:59;12.63;;;3.53;;
27666;SDS011;15074;50.940;5.282;2023-12-20T04:51:25;13.40;;;4.43;;
27666;SDS011;15074;50.940;5.282;2023-12-20T04:53:51;14.20;;;4.43;;
27666;SDS011;15074;50.940;5.282;2023-12-20T04:56:16;13.73;;;2.95;;
27666;SDS011;15074;50.940;5.282;2023-12-20T04:58:42;10.52;;;4.28;;
27666;SDS011;15074;50.940;5.282;2023-12-20T05:01:08;20.42;;;4.10;;
27666;SDS011;15074;50.940;5.282;2023-12-20T05:03:34;19.60;;;5.32;;
27666;SDS011;15074;50.940;5.282;2023-12-20T05:05:59;12.38;;;4.03;;
27666;SDS011;15074;50.940;5.282;2023-12-20T05:08:25;10.80;;;4.25;;
27666;SDS011;15074;50.940;5.282;2023-12-20T05:10:54;8.75;;;3.33;;
27666;SDS011;15074;50.940;5.282;2023-12-20T05:13:20;15.20;;;4.57;;
27666;SDS011;15074;50.940;5.282;2023-12-20T05:15:46;12.05;;;4.47;;
27666;SDS011;15074;50.940;5.282;2023-12-20T05:18:12;14.05;;;4.63;;
27666;SDS011;15074;50.940;5.282;2023-12-20T05:20:38;18.48;;;5.28;;
27666;SDS011;15074;50.940;5.282;2023-12-20T05:23:04;11.68;;;4.28;;
27666;SDS011;15074;50.940;5.282;2023-12-20T05:25:30;9.90;;;5.03;;
27666;SDS011;15074;50.940;5.282;2023-12-20T05:27:55;12.50;;;4.32;;
27666;SDS011;15074;50.940;5.282;2023-12-20T05:30:21;22.13;;;6.13;;
27666;SDS011;15074;50.940;5.282;2023-12-20T05:32:47;20.80;;;5.60;;
27666;SDS011;15074;50.940;5.282;2023-12-20T05:35:12;21.30;;;4.57;;
27666;SDS011;15074;50.940;5.282;2023-12-20T05:37:38;14.73;;;4.90;;
27666;SDS011;15074;50.940;5.282;2023-12-20T05:40:04;9.88;;;4.43;;
27666;SDS011;15074;50.940;5.282;2023-12-20T05:42:30;24.42;;;5.38;;
27666;SDS011;15074;50.940;5.282;2023-12-20T05:44:56;19.35;;;5.78;;
27666;SDS011;15074;50.940;5.282;2023-12-20T05:47:21;12.52;;;5.35;;
27666;SDS011;15074;50.940;5.282;2023-12-20T05:49:47;14.75;;;5.07;;
27666;SDS011;15074;50.940;5.282;2023-12-20T05:52:13;16.40;;;4.72;;
27666;SDS011;15074;50.940;5.282;2023-12-20T05:54:39;12.32;;;4.30;;
27666;SDS011;15074;50.940;5.282;2023-12-20T05:57:05;8.25;;;4.47;;
27666;SDS011;15074;50.940;5.282;2023-12-20T05:59:31;14.00;;;4.25;;
27666;SDS011;15074;50.940;5.282;2023-12-20T06:01:56;15.32;;;4.68;;
27666;SDS011;15074;50.940;5.282;2023-12-20T06:04:22;16.05;;;5.63;;
27666;SDS011;15074;50.940;5.282;2023-12-20T06:06:48;16.17;;;6.00;;
27666;SDS011;15074;50.940;5.282;2023-12-20T06:09:13;20.63;;;5.20;;
27666;SDS011;15074;50.940;5.282;2023-12-20T06:11:40;22.50;;;4.60;;
27666;SDS011;15074;50.940;5.282;2023-12-20T06:14:07;22.33;;;5.88;;
27666;SDS011;15074;50.940;5.282;2023-12-20T06:16:32;16.77;;;5.60;;
27666;SDS011;15074;50.940;5.282;2023-12-20T06:18:58;10.35;;;4.60;;
27666;SDS011;15074;50.940;5.282;2023-12-20T06:21:23;21.25;;;5.93;;
27666;SDS011;15074;50.940;5.282;2023-12-20T06:23:49;19.08;;;5.80;;
27666;SDS011;15074;50.940;5.282;2023-12-20T06:26:15;12.60;;;5.18;;
27666;SDS011;15074;50.940;5.282;2023-12-20T06:28:40;18.90;;;5.53;;
27666;SDS011;15074;50.940;5.282;2023-12-20T06:31:06;19.65;;;5.03;;
27666;SDS011;15074;50.940;5.282;2023-12-20T06:33:32;13.23;;;5.43;;
27666;SDS011;15074;50.940;5.282;2023-12-20T06:35:57;20.70;;;5.20;;
27666;SDS011;15074;50.940;5.282;2023-12-20T06:38:23;14.85;;;4.32;;
27666;SDS011;15074;50.940;5.282;2023-12-20T06:40:49;13.88;;;5.72;;
27666;SDS011;15074;50.940;5.282;2023-12-20T06:43:14;19.08;;;4.15;;
27666;SDS011;15074;50.940;5.282;2023-12-20T06:45:40;10.32;;;4.78;;
27666;SDS011;15074;50.940;5.282;2023-12-20T06:48:06;13.75;;;5.45;;
27666;SDS011;15074;50.940;5.282;2023-12-20T06:50:32;18.88;;;4.93;;
27666;SDS011;15074;50.940;5.282;2023-12-20T06:52:57;16.55;;;4.75;;
27666;SDS011;15074;50.940;5.282;2023-12-20T06:55:23;16.35;;;5.43;;
27666;SDS011;15074;50.940;5.282;2023-12-20T06:57:49;14.00;;;4.65;;
27666;SDS011;15074;50.940;5.282;2023-12-20T07:00:15;8.25;;;4.15;;
27666;SDS011;15074;50.940;5.282;2023-12-20T07:02:41;13.05;;;5.90;;
27666;SDS011;15074;50.940;5.282;2023-12-20T07:05:06;17.65;;;6.75;;
27666;SDS011;15074;50.940;5.282;2023-12-20T07:10:36;11.90;;;4.65;;
27666;SDS011;15074;50.940;5.282;2023-12-20T07:13:01;19.58;;;5.38;;
27666;SDS011;15074;50.940;5.282;2023-12-20T07:15:28;16.65;;;5.25;;
27666;SDS011;15074;50.940;5.282;2023-12-20T07:17:54;15.15;;;4.55;;
27666;SDS011;15074;50.940;5.282;2023-12-20T07:20:20;14.98;;;4.57;;
27666;SDS011;15074;50.940;5.282;2023-12-20T07:31:35;16.67;;;4.53;;
27666;SDS011;15074;50.940;5.282;2023-12-20T07:34:01;17.75;;;5.72;;
27666;SDS011;15074;50.940;5.282;2023-12-20T07:36:27;31.08;;;6.22;;
27666;SDS011;15074;50.940;5.282;2023-12-20T07:55:57;16.73;;;5.57;;
27666;SDS011;15074;50.940;5.282;2023-12-20T07:58:22;8.80;;;4.72;;
27666;SDS011;15074;50.940;5.282;2023-12-20T08:00:48;20.00;;;6.10;;
27666;SDS011;15074;50.940;5.282;2023-12-20T08:03:14;21.67;;;5.22;;
27666;SDS011;15074;50.940;5.282;2023-12-20T08:05:39;12.00;;;4.15;;
27666;SDS011;15074;50.940;5.282;2023-12-20T08:08:05;17.63;;;5.13;;
27666;SDS011;15074;50.940;5.282;2023-12-20T08:10:31;20.90;;;4.13;;
27666;SDS011;15074;50.940;5.282;2023-12-20T08:12:57;21.25;;;5.65;;
27666;SDS011;15074;50.940;5.282;2023-12-20T08:15:23;25.48;;;5.43;;
27666;SDS011;15074;50.940;5.282;2023-12-20T08:17:48;11.48;;;4.75;;
27666;SDS011;15074;50.940;5.282;2023-12-20T08:20:16;16.88;;;5.25;;
27666;SDS011;15074;50.940;5.282;2023-12-20T08:22:42;19.08;;;3.92;;
27666;SDS011;15074;50.940;5.282;2023-12-20T08:27:52;11.32;;;4.13;;
27666;SDS011;15074;50.940;5.282;2023-12-20T08:30:18;8.45;;;3.67;;
27666;SDS011;15074;50.940;5.282;2023-12-20T08:32:47;15.93;;;3.33;;
27666;SDS011;15074;50.940;5.282;2023-12-20T08:35:15;12.10;;;4.22;;
27666;SDS011;15074;50.940;5.282;2023-12-20T08:37:42;11.38;;;3.28;;
27666;SDS011;15074;50.940;5.282;2023-12-20T08:40:08;13.73;;;3.22;;
27666;SDS011;15074;50.940;5.282;2023-12-20T08:42:34;12.07;;;2.88;;
27666;SDS011;15074;50.940;5.282;2023-12-20T08:45:00;14.13;;;3.20;;
27666;SDS011;15074;50.940;5.282;2023-12-20T08:47:25;10.27;;;3.42;;
27666;SDS011;15074;50.940;5.282;2023-12-20T08:49:52;7.15;;;2.67;;
27666;SDS011;15074;50.940;5.282;2023-12-20T08:52:21;10.07;;;3.42;;
27666;SDS011;15074;50.940;5.282;2023-12-20T08:54:48;10.23;;;2.90;;
27666;SDS011;15074;50.940;5.282;2023-12-20T08:59:43;8.90;;;2.42;;
27666;SDS011;15074;50.940;5.282;2023-12-20T09:02:09;12.00;;;3.47;;
27666;SDS011;15074;50.940;5.282;2023-12-20T09:04:34;11.18;;;3.33;;
27666;SDS011;15074;50.940;5.282;2023-12-20T09:07:00;10.68;;;2.40;;
27666;SDS011;15074;50.940;5.282;2023-12-20T09:09:26;12.52;;;3.10;;
27666;SDS011;15074;50.940;5.282;2023-12-20T09:11:52;17.17;;;3.17;;
27666;SDS011;15074;50.940;5.282;2023-12-20T09:14:17;7.80;;;2.13;;
27666;SDS011;15074;50.940;5.282;2023-12-20T09:16:44;9.07;;;2.67;;
27666;SDS011;15074;50.940;5.282;2023-12-20T09:19:09;7.57;;;2.28;;
27666;SDS011;15074;50.940;5.282;2023-12-20T09:21:35;9.57;;;2.72;;
27666;SDS011;15074;50.940;5.282;2023-12-20T09:24:01;6.65;;;1.90;;
27666;SDS011;15074;50.940;5.282;2023-12-20T09:26:26;8.90;;;2.30;;
27666;SDS011;15074;50.940;5.282;2023-12-20T09:28:52;8.90;;;2.60;;
27666;SDS011;15074;50.940;5.282;2023-12-20T09:31:17;9.60;;;2.03;;
27666;SDS011;15074;50.940;5.282;2023-12-20T09:33:43;17.02;;;2.50;;
27666;SDS011;15074;50.940;5.282;2023-12-20T09:36:09;6.88;;;2.13;;
27666;SDS011;15074;50.940;5.282;2023-12-20T09:38:34;7.38;;;2.30;;
27666;SDS011;15074;50.940;5.282;2023-12-20T09:41:00;6.13;;;2.28;;
27666;SDS011;15074;50.940;5.282;2023-12-20T09:43:29;8.30;;;2.17;;
27666;SDS011;15074;50.940;5.282;2023-12-20T09:45:57;9.38;;;1.80;;
27666;SDS011;15074;50.940;5.282;2023-12-20T09:48:28;8.45;;;2.58;;
27666;SDS011;15074;50.940;5.282;2023-12-20T09:50:55;6.22;;;1.80;;
27666;SDS011;15074;50.940;5.282;2023-12-20T09:53:21;9.20;;;1.85;;
27666;SDS011;15074;50.940;5.282;2023-12-20T09:55:54;9.43;;;1.92;;
27666;SDS011;15074;50.940;5.282;2023-12-20T09:58:24;4.05;;;1.52;;
27666;SDS011;15074;50.940;5.282;2023-12-20T10:00:50;8.43;;;2.03;;
27666;SDS011;15074;50.940;5.282;2023-12-20T10:03:16;6.93;;;2.15;;
27666;SDS011;15074;50.940;5.282;2023-12-20T10:05:44;5.78;;;2.10;;
27666;SDS011;15074;50.940;5.282;2023-12-20T10:08:12;10.55;;;1.60;;
27666;SDS011;15074;50.940;5.282;2023-12-20T10:10:37;5.57;;;1.95;;
27666;SDS011;15074;50.940;5.282;2023-12-20T10:15:30;9.60;;;1.90;;
27666;SDS011;15074;50.940;5.282;2023-12-20T10:17:56;6.85;;;1.73;;
27666;SDS011;15074;50.940;5.282;2023-12-20T10:20:23;10.30;;;2.35;;
27666;SDS011;15074;50.940;5.282;2023-12-20T10:22:49;6.03;;;1.90;;
27666;SDS011;15074;50.940;5.282;2023-12-20T10:25:14;9.23;;;2.72;;
27666;SDS011;15074;50.940;5.282;2023-12-20T10:27:41;5.20;;;1.95;;
27666;SDS011;15074;50.940;5.282;2023-12-20T10:30:07;13.90;;;2.70;;
27666;SDS011;15074;50.940;5.282;2023-12-20T10:32:33;4.72;;;2.03;;
27666;SDS011;15074;50.940;5.282;2023-12-20T10:34:59;6.28;;;2.20;;
27666;SDS011;15074;50.940;5.282;2023-12-20T10:37:25;11.88;;;2.45;;
27666;SDS011;15074;50.940;5.282;2023-12-20T10:39:51;6.95;;;2.08;;
27666;SDS011;15074;50.940;5.282;2023-12-20T10:42:21;9.10;;;1.95;;
27666;SDS011;15074;50.940;5.282;2023-12-20T10:44:48;11.10;;;2.42;;
27666;SDS011;15074;50.940;5.282;2023-12-20T10:49:41;8.45;;;2.70;;
27666;SDS011;15074;50.940;5.282;2023-12-20T10:52:07;7.85;;;2.42;;
27666;SDS011;15074;50.940;5.282;2023-12-20T10:54:35;5.85;;;2.30;;
27666;SDS011;15074;50.940;5.282;2023-12-20T10:57:01;6.07;;;2.38;;
27666;SDS011;15074;50.940;5.282;2023-12-20T10:59:30;7.60;;;2.58;;
27666;SDS011;15074;50.940;5.282;2023-12-20T11:02:00;6.85;;;2.40;;
27666;SDS011;15074;50.940;5.282;2023-12-20T11:04:33;8.85;;;3.03;;
27666;SDS011;15074;50.940;5.282;2023-12-20T11:10:39;9.35;;;2.40;;
27666;SDS011;15074;50.940;5.282;2023-12-20T11:15:10;5.32;;;1.85;;
27666;SDS011;15074;50.940;5.282;2023-12-20T11:17:38;9.65;;;2.47;;
27666;SDS011;15074;50.940;5.282;2023-12-20T11:20:05;4.60;;;2.25;;
27666;SDS011;15074;50.940;5.282;2023-12-20T11:22:31;11.98;;;2.60;;
27666;SDS011;15074;50.940;5.282;2023-12-20T11:24:59;8.65;;;2.90;;
27666;SDS011;15074;50.940;5.282;2023-12-20T11:27:33;7.35;;;2.90;;
27666;SDS011;15074;50.940;5.282;2023-12-20T11:29:59;8.40;;;3.08;;
27666;SDS011;15074;50.940;5.282;2023-12-20T11:32:28;6.50;;;2.88;;
27666;SDS011;15074;50.940;5.282;2023-12-20T11:35:39;7.20;;;1.58;;
27666;SDS011;15074;50.940;5.282;2023-12-20T11:37:40;16.65;;;2.33;;
27666;SDS011;15074;50.940;5.282;2023-12-20T11:40:12;9.48;;;2.42;;
27666;SDS011;15074;50.940;5.282;2023-12-20T11:42:50;6.45;;;2.85;;
27666;SDS011;15074;50.940;5.282;2023-12-20T11:45:20;9.80;;;2.38;;
27666;SDS011;15074;50.940;5.282;2023-12-20T11:47:49;9.38;;;2.53;;
27666;SDS011;15074;50.940;5.282;2023-12-20T11:50:16;10.63;;;2.85;;
27666;SDS011;15074;50.940;5.282;2023-12-20T11:52:45;11.77;;;1.98;;
27666;SDS011;15074;50.940;5.282;2023-12-20T11:55:11;5.53;;;2.17;;
27666;SDS011;15074;50.940;5.282;2023-12-20T11:57:37;6.30;;;2.83;;
27666;SDS011;15074;50.940;5.282;2023-12-20T12:00:03;10.85;;;3.10;;
27666;SDS011;15074;50.940;5.282;2023-12-20T12:02:30;6.18;;;1.80;;
27666;SDS011;15074;50.940;5.282;2023-12-20T12:04:55;11.00;;;3.00;;
27666;SDS011;15074;50.940;5.282;2023-12-20T12:07:23;6.07;;;2.53;;
27666;SDS011;15074;50.940;5.282;2023-12-20T12:09:49;9.27;;;3.55;;
27666;SDS011;15074;50.940;5.282;2023-12-20T12:12:15;6.07;;;2.65;;
27666;SDS011;15074;50.940;5.282;2023-12-20T12:14:41;6.70;;;3.15;;
27666;SDS011;15074;50.940;5.282;2023-12-20T12:17:11;8.73;;;3.33;;
27666;SDS011;15074;50.940;5.282;2023-12-20T12:19:38;15.32;;;3.55;;
27666;SDS011;15074;50.940;5.282;2023-12-20T12:22:07;15.55;;;3.25;;
27666;SDS011;15074;50.940;5.282;2023-12-20T12:24:44;5.63;;;2.87;;
27666;SDS011;15074;50.940;5.282;2023-12-20T12:27:12;8.13;;;2.75;;
27666;SDS011;15074;50.940;5.282;2023-12-20T12:29:38;12.52;;;4.78;;
27666;SDS011;15074;50.940;5.282;2023-12-20T12:32:04;7.60;;;3.22;;
27666;SDS011;15074;50.940;5.282;2023-12-20T12:34:32;8.60;;;3.97;;
27666;SDS011;15074;50.940;5.282;2023-12-20T12:36:59;12.50;;;4.57;;
27666;SDS011;15074;50.940;5.282;2023-12-20T12:42:11;7.25;;;3.40;;
27666;SDS011;15074;50.940;5.282;2023-12-20T12:44:37;6.60;;;3.05;;
27666;SDS011;15074;50.940;5.282;2023-12-20T12:47:03;11.88;;;3.47;;
27666;SDS011;15074;50.940;5.282;2023-12-20T12:49:28;12.90;;;3.83;;
27666;SDS011;15074;50.940;5.282;2023-12-20T12:51:54;12.02;;;4.05;;
27666;SDS011;15074;50.940;5.282;2023-12-20T12:54:23;10.38;;;3.90;;
27666;SDS011;15074;50.940;5.282;2023-12-20T12:56:49;6.55;;;2.75;;
27666;SDS011;15074;50.940;5.282;2023-12-20T12:59:15;11.68;;;3.80;;
27666;SDS011;15074;50.940;5.282;2023-12-20T13:01:41;11.60;;;4.30;;
27666;SDS011;15074;50.940;5.282;2023-12-20T13:04:07;9.88;;;3.75;;
